createdAt,value
2023-05-20T00:13:50.345Z,33.29
2023-05-20T00:33:50.213Z,33.29
2023-05-20T00:53:50.206Z,33.29
2023-05-20T01:13:50.316Z,33.29
2023-05-20T01:33:50.296Z,33.29
2023-05-20T01:53:50.274Z,33.29
2023-05-20T02:13:50.138Z,33.28
2023-05-20T02:33:50.289Z,33.28
2023-05-20T02:53:50.251Z,33.29
2023-05-20T03:13:50.217Z,33.28
2023-05-20T03:33:50.203Z,33.28
2023-05-20T03:53:49.657Z,33.28
2023-05-20T04:13:50.182Z,33.28
2023-05-20T04:33:50.167Z,33.28
2023-05-20T04:53:50.028Z,33.27
2023-05-20T05:13:50.151Z,33.27
2023-05-20T05:53:50.122Z,33.27
2023-05-20T06:13:50.095Z,33.27
2023-05-20T06:33:50.086Z,33.27
2023-05-20T06:53:50.095Z,33.27
2023-05-20T07:13:50.053Z,33.27
2023-05-20T07:33:50.041Z,33.27
2023-05-20T07:53:50.036Z,33.27
2023-05-20T08:13:50.061Z,33.26
2023-05-20T09:33:49.960Z,33.26
2023-05-20T09:53:49.953Z,33.26
2023-05-20T10:13:49.939Z,33.26
2023-05-20T10:33:49.947Z,33.26
2023-05-20T10:53:49.906Z,33.26
2023-05-20T11:13:49.888Z,33.26
2023-05-20T11:33:49.877Z,33.25
2023-05-20T11:53:49.856Z,33.25
2023-05-20T12:13:49.705Z,33.25
2023-05-20T12:33:49.877Z,33.25
2023-05-20T12:53:49.806Z,33.25
2023-05-20T13:13:49.794Z,33.25
2023-05-20T14:53:49.749Z,33.25
2023-05-20T15:13:49.699Z,33.25
2023-05-20T19:33:49.496Z,33.23
2023-05-20T19:53:49.478Z,33.23
2023-05-20T20:33:49.451Z,33.23
2023-05-20T20:53:49.443Z,33.22
2023-05-20T21:13:49.420Z,33.22
2023-05-20T21:33:49.410Z,33.22
2023-05-20T21:53:49.400Z,33.22
2023-05-20T22:13:49.397Z,33.22
2023-05-20T22:33:49.380Z,33.21
2023-05-20T22:53:49.366Z,33.21
2023-05-20T23:13:49.334Z,33.21
2023-05-20T23:33:49.663Z,33.21
2023-05-20T23:53:49.301Z,33.21
